sensor_id;sensor_type;location;lat;lon;timestamp;temperature;humidity
46494;DHT22;53214;49.314;6.280;2022-08-01T00:00:06;21.20;94.00
46494;DHT22;53214;49.314;6.280;2022-08-01T00:02:36;21.00;94.40
46494;DHT22;53214;49.314;6.280;2022-08-01T00:05:05;20.90;94.80
46494;DHT22;53214;49.314;6.280;2022-08-01T00:07:36;20.90;94.90
46494;DHT22;53214;49.314;6.280;2022-08-01T00:10:04;21.10;94.90
46494;DHT22;53214;49.314;6.280;2022-08-01T00:12:31;21.20;94.80
46494;DHT22;53214;49.314;6.280;2022-08-01T00:14:58;21.20;94.70
46494;DHT22;53214;49.314;6.280;2022-08-01T00:17:25;21.30;94.70
46494;DHT22;53214;49.314;6.280;2022-08-01T00:19:52;21.30;94.70
46494;DHT22;53214;49.314;6.280;2022-08-01T00:22:19;21.40;94.70
46494;DHT22;53214;49.314;6.280;2022-08-01T00:24:46;21.40;94.60
46494;DHT22;53214;49.314;6.280;2022-08-01T00:27:13;21.40;94.60
46494;DHT22;53214;49.314;6.280;2022-08-01T00:29:40;21.40;94.70
46494;DHT22;53214;49.314;6.280;2022-08-01T00:32:30;21.40;94.80
46494;DHT22;53214;49.314;6.280;2022-08-01T00:34:57;21.40;95.00
46494;DHT22;53214;49.314;6.280;2022-08-01T00:37:24;21.30;95.10
46494;DHT22;53214;49.314;6.280;2022-08-01T00:39:51;21.30;95.20
46494;DHT22;53214;49.314;6.280;2022-08-01T00:42:18;21.20;95.30
46494;DHT22;53214;49.314;6.280;2022-08-01T00:44:45;21.20;95.40
46494;DHT22;53214;49.314;6.280;2022-08-01T00:47:12;21.10;95.50
46494;DHT22;53214;49.314;6.280;2022-08-01T00:49:39;21.10;95.60
46494;DHT22;53214;49.314;6.280;2022-08-01T00:52:06;21.10;95.60
46494;DHT22;53214;49.314;6.280;2022-08-01T00:54:35;21.10;95.60
46494;DHT22;53214;49.314;6.280;2022-08-01T00:57:03;21.10;95.60
46494;DHT22;53214;49.314;6.280;2022-08-01T00:59:36;21.00;95.60
46494;DHT22;53214;49.314;6.280;2022-08-01T01:02:05;21.00;95.70
46494;DHT22;53214;49.314;6.280;2022-08-01T01:04:42;20.90;95.80
46494;DHT22;53214;49.314;6.280;2022-08-01T01:07:40;20.90;95.90
46494;DHT22;53214;49.314;6.280;2022-08-01T01:13:11;20.80;96.10
46494;DHT22;53214;49.314;6.280;2022-08-01T01:15:49;20.80;96.50
46494;DHT22;53214;49.314;6.280;2022-08-01T01:18:24;20.80;96.50
46494;DHT22;53214;49.314;6.280;2022-08-01T01:29:44;20.80;96.80
46494;DHT22;53214;49.314;6.280;2022-08-01T01:32:36;20.80;96.80
46494;DHT22;53214;49.314;6.280;2022-08-01T01:35:07;20.80;96.80
46494;DHT22;53214;49.314;6.280;2022-08-01T01:37:38;20.80;96.80
46494;DHT22;53214;49.314;6.280;2022-08-01T01:40:07;20.80;96.80
46494;DHT22;53214;49.314;6.280;2022-08-01T01:42:36;20.90;96.80
46494;DHT22;53214;49.314;6.280;2022-08-01T01:45:04;20.90;96.60
46494;DHT22;53214;49.314;6.280;2022-08-01T01:47:32;20.90;96.50
46494;DHT22;53214;49.314;6.280;2022-08-01T01:50:00;20.80;96.70
46494;DHT22;53214;49.314;6.280;2022-08-01T01:52:29;20.60;97.00
46494;DHT22;53214;49.314;6.280;2022-08-01T01:54:59;20.50;97.40
46494;DHT22;53214;49.314;6.280;2022-08-01T01:57:27;20.40;97.60
46494;DHT22;53214;49.314;6.280;2022-08-01T01:59:57;20.50;97.60
46494;DHT22;53214;49.314;6.280;2022-08-01T02:02:24;20.60;97.60
46494;DHT22;53214;49.314;6.280;2022-08-01T02:04:53;20.60;97.40
46494;DHT22;53214;49.314;6.280;2022-08-01T02:07:25;20.70;97.40
46494;DHT22;53214;49.314;6.280;2022-08-01T02:09:54;20.70;97.40
46494;DHT22;53214;49.314;6.280;2022-08-01T02:12:21;20.70;97.40
46494;DHT22;53214;49.314;6.280;2022-08-01T02:14:49;20.70;97.20
46494;DHT22;53214;49.314;6.280;2022-08-01T02:17:18;20.70;97.40
46494;DHT22;53214;49.314;6.280;2022-08-01T02:19:46;20.70;97.40
46494;DHT22;53214;49.314;6.280;2022-08-01T02:22:40;20.60;97.50
46494;DHT22;53214;49.314;6.280;2022-08-01T02:25:33;20.50;97.90
46494;DHT22;53214;49.314;6.280;2022-08-01T02:28:03;20.40;98.10
46494;DHT22;53214;49.314;6.280;2022-08-01T02:30:33;20.30;98.00
46494;DHT22;53214;49.314;6.280;2022-08-01T02:33:05;20.30;98.10
46494;DHT22;53214;49.314;6.280;2022-08-01T02:35:42;20.20;98.20
46494;DHT22;53214;49.314;6.280;2022-08-01T02:38:33;20.20;98.30
46494;DHT22;53214;49.314;6.280;2022-08-01T02:41:07;20.20;98.40
46494;DHT22;53214;49.314;6.280;2022-08-01T02:43:37;20.20;98.40
46494;DHT22;53214;49.314;6.280;2022-08-01T02:46:08;20.20;98.40
46494;DHT22;53214;49.314;6.280;2022-08-01T02:48:38;20.20;98.30
46494;DHT22;53214;49.314;6.280;2022-08-01T02:51:08;20.20;98.40
46494;DHT22;53214;49.314;6.280;2022-08-01T02:53:37;20.20;98.50
46494;DHT22;53214;49.314;6.280;2022-08-01T02:56:11;20.20;98.50
46494;DHT22;53214;49.314;6.280;2022-08-01T02:58:40;20.20;98.40
46494;DHT22;53214;49.314;6.280;2022-08-01T03:01:09;20.20;98.50
46494;DHT22;53214;49.314;6.280;2022-08-01T03:03:37;20.10;98.50
46494;DHT22;53214;49.314;6.280;2022-08-01T03:06:05;20.10;98.40
46494;DHT22;53214;49.314;6.280;2022-08-01T03:08:33;20.10;98.40
46494;DHT22;53214;49.314;6.280;2022-08-01T03:11:02;20.10;98.60
46494;DHT22;53214;49.314;6.280;2022-08-01T03:13:31;20.10;98.60
46494;DHT22;53214;49.314;6.280;2022-08-01T03:15:59;20.00;98.50
46494;DHT22;53214;49.314;6.280;2022-08-01T03:18:29;20.00;98.70
46494;DHT22;53214;49.314;6.280;2022-08-01T03:20:58;19.90;98.70
46494;DHT22;53214;49.314;6.280;2022-08-01T03:23:29;19.90;99.10
46494;DHT22;53214;49.314;6.280;2022-08-01T03:26:05;19.80;99.50
46494;DHT22;53214;49.314;6.280;2022-08-01T03:28:32;19.80;99.30
46494;DHT22;53214;49.314;6.280;2022-08-01T03:31:00;19.90;99.30
46494;DHT22;53214;49.314;6.280;2022-08-01T03:33:29;19.90;99.20
46494;DHT22;53214;49.314;6.280;2022-08-01T03:35:58;19.90;99.20
46494;DHT22;53214;49.314;6.280;2022-08-01T03:38:27;20.00;99.30
46494;DHT22;53214;49.314;6.280;2022-08-01T03:41:03;20.00;99.20
46494;DHT22;53214;49.314;6.280;2022-08-01T03:43:35;20.00;99.20
46494;DHT22;53214;49.314;6.280;2022-08-01T03:46:10;20.00;99.20
46494;DHT22;53214;49.314;6.280;2022-08-01T03:48:41;20.10;99.30
46494;DHT22;53214;49.314;6.280;2022-08-01T03:51:09;20.10;99.10
46494;DHT22;53214;49.314;6.280;2022-08-01T03:53:38;20.10;99.30
46494;DHT22;53214;49.314;6.280;2022-08-01T03:56:09;20.10;99.40
46494;DHT22;53214;49.314;6.280;2022-08-01T03:58:39;20.00;99.40
46494;DHT22;53214;49.314;6.280;2022-08-01T04:01:06;20.00;99.60
46494;DHT22;53214;49.314;6.280;2022-08-01T04:03:42;20.00;99.50
46494;DHT22;53214;49.314;6.280;2022-08-01T04:06:09;20.00;99.50
46494;DHT22;53214;49.314;6.280;2022-08-01T04:08:38;20.00;99.50
46494;DHT22;53214;49.314;6.280;2022-08-01T04:11:08;20.00;99.50
46494;DHT22;53214;49.314;6.280;2022-08-01T04:13:35;20.00;99.60
46494;DHT22;53214;49.314;6.280;2022-08-01T04:16:04;20.00;99.60
46494;DHT22;53214;49.314;6.280;2022-08-01T04:18:31;20.10;99.80
46494;DHT22;53214;49.314;6.280;2022-08-01T04:20:58;20.00;99.90
46494;DHT22;53214;49.314;6.280;2022-08-01T04:23:27;19.90;99.90
46494;DHT22;53214;49.314;6.280;2022-08-01T04:25:55;19.80;99.90
46494;DHT22;53214;49.314;6.280;2022-08-01T04:28:24;19.90;99.90
46494;DHT22;53214;49.314;6.280;2022-08-01T04:30:54;19.90;99.90
46494;DHT22;53214;49.314;6.280;2022-08-01T04:33:28;19.90;99.90
46494;DHT22;53214;49.314;6.280;2022-08-01T04:35:58;20.00;99.90
46494;DHT22;53214;49.314;6.280;2022-08-01T04:38:33;20.20;99.90
46494;DHT22;53214;49.314;6.280;2022-08-01T04:41:04;20.20;99.90
46494;DHT22;53214;49.314;6.280;2022-08-01T04:43:36;20.30;99.90
46494;DHT22;53214;49.314;6.280;2022-08-01T04:46:05;20.30;99.90
46494;DHT22;53214;49.314;6.280;2022-08-01T04:48:36;20.40;99.90
46494;DHT22;53214;49.314;6.280;2022-08-01T04:51:04;20.40;99.90
46494;DHT22;53214;49.314;6.280;2022-08-01T04:53:31;20.40;99.90
46494;DHT22;53214;49.314;6.280;2022-08-01T04:55:59;20.40;99.90
46494;DHT22;53214;49.314;6.280;2022-08-01T04:58:25;20.30;99.90
46494;DHT22;53214;49.314;6.280;2022-08-01T05:00:52;20.20;99.90
46494;DHT22;53214;49.314;6.280;2022-08-01T05:03:19;20.20;99.90
46494;DHT22;53214;49.314;6.280;2022-08-01T05:05:46;20.20;99.90
46494;DHT22;53214;49.314;6.280;2022-08-01T05:08:13;20.30;99.90
46494;DHT22;53214;49.314;6.280;2022-08-01T05:10:40;20.40;99.90
46494;DHT22;53214;49.314;6.280;2022-08-01T05:13:07;20.50;99.90
46494;DHT22;53214;49.314;6.280;2022-08-01T05:15:35;20.60;99.90
46494;DHT22;53214;49.314;6.280;2022-08-01T05:18:03;20.60;99.90
46494;DHT22;53214;49.314;6.280;2022-08-01T05:20:30;20.70;99.90
46494;DHT22;53214;49.314;6.280;2022-08-01T05:22:57;20.70;99.90
46494;DHT22;53214;49.314;6.280;2022-08-01T05:25:24;20.70;99.90
46494;DHT22;53214;49.314;6.280;2022-08-01T05:28:11;20.70;99.90
46494;DHT22;53214;49.314;6.280;2022-08-01T05:30:44;20.80;99.90
46494;DHT22;53214;49.314;6.280;2022-08-01T05:33:11;20.90;99.90
46494;DHT22;53214;49.314;6.280;2022-08-01T05:35:38;20.90;99.90
46494;DHT22;53214;49.314;6.280;2022-08-01T05:38:14;21.00;99.90
46494;DHT22;53214;49.314;6.280;2022-08-01T05:40:41;21.10;99.90
46494;DHT22;53214;49.314;6.280;2022-08-01T05:43:08;21.10;99.80
46494;DHT22;53214;49.314;6.280;2022-08-01T05:45:35;21.20;99.70
46494;DHT22;53214;49.314;6.280;2022-08-01T05:48:02;21.30;99.50
46494;DHT22;53214;49.314;6.280;2022-08-01T05:50:29;21.40;99.40
46494;DHT22;53214;49.314;6.280;2022-08-01T05:52:56;21.50;99.40
46494;DHT22;53214;49.314;6.280;2022-08-01T05:55:23;21.60;99.20
46494;DHT22;53214;49.314;6.280;2022-08-01T05:57:50;21.60;98.90
46494;DHT22;53214;49.314;6.280;2022-08-01T06:00:17;21.50;98.90
46494;DHT22;53214;49.314;6.280;2022-08-01T06:02:45;21.50;98.60
46494;DHT22;53214;49.314;6.280;2022-08-01T06:05:12;21.60;98.60
46494;DHT22;53214;49.314;6.280;2022-08-01T06:07:40;21.60;98.50
46494;DHT22;53214;49.314;6.280;2022-08-01T06:10:08;21.80;98.30
46494;DHT22;53214;49.314;6.280;2022-08-01T06:12:35;21.90;98.00
46494;DHT22;53214;49.314;6.280;2022-08-01T06:15:04;22.00;97.80
46494;DHT22;53214;49.314;6.280;2022-08-01T06:17:31;22.10;97.70
46494;DHT22;53214;49.314;6.280;2022-08-01T06:19:58;22.20;97.40
46494;DHT22;53214;49.314;6.280;2022-08-01T06:22:25;22.50;97.00
46494;DHT22;53214;49.314;6.280;2022-08-01T06:24:52;22.80;96.40
46494;DHT22;53214;49.314;6.280;2022-08-01T06:27:19;23.00;96.00
46494;DHT22;53214;49.314;6.280;2022-08-01T06:29:48;23.10;95.80
46494;DHT22;53214;49.314;6.280;2022-08-01T06:32:20;23.20;95.90
46494;DHT22;53214;49.314;6.280;2022-08-01T06:34:54;23.20;95.50
46494;DHT22;53214;49.314;6.280;2022-08-01T06:37:22;23.10;95.30
46494;DHT22;53214;49.314;6.280;2022-08-01T06:39:49;23.20;95.30
46494;DHT22;53214;49.314;6.280;2022-08-01T06:42:16;23.30;95.40
46494;DHT22;53214;49.314;6.280;2022-08-01T06:44:44;23.40;94.80
46494;DHT22;53214;49.314;6.280;2022-08-01T06:47:11;23.40;94.90
46494;DHT22;53214;49.314;6.280;2022-08-01T06:49:38;23.60;94.60
46494;DHT22;53214;49.314;6.280;2022-08-01T06:52:05;23.70;94.50
46494;DHT22;53214;49.314;6.280;2022-08-01T06:54:32;23.90;94.20
46494;DHT22;53214;49.314;6.280;2022-08-01T06:56:59;24.10;93.60
46494;DHT22;53214;49.314;6.280;2022-08-01T06:59:26;24.20;93.40
46494;DHT22;53214;49.314;6.280;2022-08-01T07:01:53;24.40;93.30
46494;DHT22;53214;49.314;6.280;2022-08-01T07:04:20;24.60;92.80
46494;DHT22;53214;49.314;6.280;2022-08-01T07:06:47;24.60;92.30
46494;DHT22;53214;49.314;6.280;2022-08-01T07:09:14;24.60;92.40
46494;DHT22;53214;49.314;6.280;2022-08-01T07:11:41;24.80;92.10
46494;DHT22;53214;49.314;6.280;2022-08-01T07:14:08;25.00;92.00
46494;DHT22;53214;49.314;6.280;2022-08-01T07:16:35;25.10;91.50
46494;DHT22;53214;49.314;6.280;2022-08-01T07:19:02;25.10;91.50
46494;DHT22;53214;49.314;6.280;2022-08-01T07:21:29;25.00;91.30
46494;DHT22;53214;49.314;6.280;2022-08-01T07:24:08;25.00;91.20
46494;DHT22;53214;49.314;6.280;2022-08-01T07:26:40;25.00;91.00
46494;DHT22;53214;49.314;6.280;2022-08-01T07:29:20;24.80;91.30
46494;DHT22;53214;49.314;6.280;2022-08-01T07:31:51;24.80;91.50
46494;DHT22;53214;49.314;6.280;2022-08-01T07:34:19;24.60;91.50
46494;DHT22;53214;49.314;6.280;2022-08-01T07:36:46;24.60;91.70
46494;DHT22;53214;49.314;6.280;2022-08-01T07:39:13;24.50;91.80
46494;DHT22;53214;49.314;6.280;2022-08-01T07:41:40;24.30;92.00
46494;DHT22;53214;49.314;6.280;2022-08-01T07:44:27;24.30;91.90
46494;DHT22;53214;49.314;6.280;2022-08-01T07:46:54;24.30;91.60
46494;DHT22;53214;49.314;6.280;2022-08-01T07:49:21;24.00;91.80
46494;DHT22;53214;49.314;6.280;2022-08-01T07:51:49;24.00;92.20
46494;DHT22;53214;49.314;6.280;2022-08-01T07:54:36;23.90;92.10
46494;DHT22;53214;49.314;6.280;2022-08-01T07:57:03;23.90;92.20
46494;DHT22;53214;49.314;6.280;2022-08-01T07:59:30;23.90;92.40
46494;DHT22;53214;49.314;6.280;2022-08-01T08:01:57;23.90;92.20
46494;DHT22;53214;49.314;6.280;2022-08-01T08:04:24;23.90;92.10
46494;DHT22;53214;49.314;6.280;2022-08-01T08:06:51;23.90;92.10
46494;DHT22;53214;49.314;6.280;2022-08-01T08:09:20;23.90;92.20
46494;DHT22;53214;49.314;6.280;2022-08-01T08:11:47;24.10;92.10
46494;DHT22;53214;49.314;6.280;2022-08-01T08:14:18;24.10;91.60
46494;DHT22;53214;49.314;6.280;2022-08-01T08:16:45;24.10;91.60
46494;DHT22;53214;49.314;6.280;2022-08-01T08:19:12;24.20;91.50
46494;DHT22;53214;49.314;6.280;2022-08-01T08:21:40;24.30;91.50
46494;DHT22;53214;49.314;6.280;2022-08-01T08:24:07;24.40;91.40
46494;DHT22;53214;49.314;6.280;2022-08-01T08:26:57;24.50;91.30
46494;DHT22;53214;49.314;6.280;2022-08-01T08:29:25;24.50;91.30
46494;DHT22;53214;49.314;6.280;2022-08-01T08:31:54;24.40;91.50
46494;DHT22;53214;49.314;6.280;2022-08-01T08:34:25;24.40;91.60
46494;DHT22;53214;49.314;6.280;2022-08-01T08:36:54;24.40;91.60
46494;DHT22;53214;49.314;6.280;2022-08-01T08:39:22;24.60;91.40
46494;DHT22;53214;49.314;6.280;2022-08-01T08:41:49;24.70;91.20
46494;DHT22;53214;49.314;6.280;2022-08-01T08:44:17;24.90;91.10
46494;DHT22;53214;49.314;6.280;2022-08-01T08:46:50;24.90;90.90
46494;DHT22;53214;49.314;6.280;2022-08-01T08:49:25;24.90;90.80
46494;DHT22;53214;49.314;6.280;2022-08-01T08:52:03;24.70;91.00
46494;DHT22;53214;49.314;6.280;2022-08-01T08:54:32;24.60;91.00
46494;DHT22;53214;49.314;6.280;2022-08-01T08:57:00;24.50;91.10
46494;DHT22;53214;49.314;6.280;2022-08-01T08:59:27;24.50;91.20
46494;DHT22;53214;49.314;6.280;2022-08-01T09:01:56;24.50;91.20
46494;DHT22;53214;49.314;6.280;2022-08-01T09:04:24;24.30;91.40
46494;DHT22;53214;49.314;6.280;2022-08-01T09:06:53;24.50;91.50
46494;DHT22;53214;49.314;6.280;2022-08-01T09:09:20;24.40;91.10
46494;DHT22;53214;49.314;6.280;2022-08-01T09:11:47;24.40;91.40
46494;DHT22;53214;49.314;6.280;2022-08-01T09:14:24;24.30;91.50
46494;DHT22;53214;49.314;6.280;2022-08-01T09:17:02;24.30;91.20
46494;DHT22;53214;49.314;6.280;2022-08-01T09:19:40;24.30;91.00
46494;DHT22;53214;49.314;6.280;2022-08-01T09:22:10;24.30;90.90
46494;DHT22;53214;49.314;6.280;2022-08-01T09:24:38;24.10;90.60
46494;DHT22;53214;49.314;6.280;2022-08-01T09:27:20;24.00;91.00
46494;DHT22;53214;49.314;6.280;2022-08-01T09:29:51;23.80;91.00
46494;DHT22;53214;49.314;6.280;2022-08-01T09:32:28;23.60;91.30
46494;DHT22;53214;49.314;6.280;2022-08-01T09:38:25;23.50;91.80
46494;DHT22;53214;49.314;6.280;2022-08-01T09:40:57;23.40;91.70
46494;DHT22;53214;49.314;6.280;2022-08-01T09:43:26;23.40;91.90
46494;DHT22;53214;49.314;6.280;2022-08-01T09:45:55;23.50;91.70
46494;DHT22;53214;49.314;6.280;2022-08-01T09:48:24;23.60;91.70
46494;DHT22;53214;49.314;6.280;2022-08-01T09:50:57;23.70;91.70
46494;DHT22;53214;49.314;6.280;2022-08-01T09:53:47;23.90;91.70
46494;DHT22;53214;49.314;6.280;2022-08-01T09:56:19;24.30;90.70
46494;DHT22;53214;49.314;6.280;2022-08-01T10:01:24;24.90;90.00
46494;DHT22;53214;49.314;6.280;2022-08-01T10:04:12;25.30;88.90
46494;DHT22;53214;49.314;6.280;2022-08-01T10:06:46;25.50;88.10
46494;DHT22;53214;49.314;6.280;2022-08-01T10:09:26;25.60;88.00
46494;DHT22;53214;49.314;6.280;2022-08-01T10:12:07;25.80;86.80
46494;DHT22;53214;49.314;6.280;2022-08-01T10:14:41;26.10;85.50
46494;DHT22;53214;49.314;6.280;2022-08-01T10:17:13;26.50;85.00
46494;DHT22;53214;49.314;6.280;2022-08-01T10:19:46;26.90;83.20
46494;DHT22;53214;49.314;6.280;2022-08-01T10:22:18;27.10;82.90
46494;DHT22;53214;49.314;6.280;2022-08-01T10:24:47;28.00;81.90
46494;DHT22;53214;49.314;6.280;2022-08-01T10:27:17;28.20;79.50
46494;DHT22;53214;49.314;6.280;2022-08-01T10:30:01;28.20;78.50
46494;DHT22;53214;49.314;6.280;2022-08-01T10:32:46;27.50;78.90
46494;DHT22;53214;49.314;6.280;2022-08-01T10:35:16;27.10;80.20
46494;DHT22;53214;49.314;6.280;2022-08-01T10:38:05;26.70;81.70
46494;DHT22;53214;49.314;6.280;2022-08-01T10:40:37;26.90;81.80
46494;DHT22;53214;49.314;6.280;2022-08-01T10:43:05;27.10;81.00
46494;DHT22;53214;49.314;6.280;2022-08-01T10:45:33;27.10;81.00
46494;DHT22;53214;49.314;6.280;2022-08-01T10:50:52;26.40;82.30
46494;DHT22;53214;49.314;6.280;2022-08-01T10:53:23;25.90;84.20
46494;DHT22;53214;49.314;6.280;2022-08-01T10:56:07;25.40;85.70
46494;DHT22;53214;49.314;6.280;2022-08-01T10:58:42;25.00;86.90
46494;DHT22;53214;49.314;6.280;2022-08-01T11:01:28;24.70;87.80
46494;DHT22;53214;49.314;6.280;2022-08-01T11:11:58;24.10;89.60
46494;DHT22;53214;49.314;6.280;2022-08-01T11:14:26;23.90;90.20
46494;DHT22;53214;49.314;6.280;2022-08-01T11:17:35;23.80;90.50
46494;DHT22;53214;49.314;6.280;2022-08-01T11:28:27;23.50;91.70
46494;DHT22;53214;49.314;6.280;2022-08-01T11:41:40;24.40;90.40
46494;DHT22;53214;49.314;6.280;2022-08-01T11:44:19;24.70;89.90
46494;DHT22;53214;49.314;6.280;2022-08-01T11:52:04;25.30;87.40
46494;DHT22;53214;49.314;6.280;2022-08-01T11:57:20;26.00;85.20
46494;DHT22;53214;49.314;6.280;2022-08-01T11:59:51;26.40;84.00
46494;DHT22;53214;49.314;6.280;2022-08-01T12:02:32;26.60;83.80
46494;DHT22;53214;49.314;6.280;2022-08-01T12:05:04;26.90;82.50
46494;DHT22;53214;49.314;6.280;2022-08-01T12:07:35;26.90;82.70
46494;DHT22;53214;49.314;6.280;2022-08-01T12:10:15;26.60;83.10
46494;DHT22;53214;49.314;6.280;2022-08-01T12:12:54;26.30;83.70
46494;DHT22;53214;49.314;6.280;2022-08-01T12:15:23;26.00;84.80
46494;DHT22;53214;49.314;6.280;2022-08-01T12:17:56;25.80;85.30
46494;DHT22;53214;49.314;6.280;2022-08-01T12:20:27;25.60;85.80
46494;DHT22;53214;49.314;6.280;2022-08-01T12:22:59;25.40;86.60
46494;DHT22;53214;49.314;6.280;2022-08-01T12:25:26;25.30;87.30
46494;DHT22;53214;49.314;6.280;2022-08-01T12:27:53;25.30;87.30
46494;DHT22;53214;49.314;6.280;2022-08-01T12:30:23;25.30;86.80
46494;DHT22;53214;49.314;6.280;2022-08-01T12:32:52;25.60;86.30
46494;DHT22;53214;49.314;6.280;2022-08-01T12:35:21;25.80;85.70
46494;DHT22;53214;49.314;6.280;2022-08-01T12:37:53;26.10;84.50
46494;DHT22;53214;49.314;6.280;2022-08-01T12:40:23;26.20;84.20
46494;DHT22;53214;49.314;6.280;2022-08-01T12:42:55;26.50;83.70
46494;DHT22;53214;49.314;6.280;2022-08-01T12:45:26;26.70;83.00
46494;DHT22;53214;49.314;6.280;2022-08-01T12:47:54;26.80;82.40
46494;DHT22;53214;49.314;6.280;2022-08-01T12:50:23;27.00;82.20
46494;DHT22;53214;49.314;6.280;2022-08-01T12:52:51;26.90;81.40
46494;DHT22;53214;49.314;6.280;2022-08-01T12:55:23;26.80;81.50
46494;DHT22;53214;49.314;6.280;2022-08-01T12:58:08;26.70;81.10
46494;DHT22;53214;49.314;6.280;2022-08-01T13:00:43;26.40;81.40
46494;DHT22;53214;49.314;6.280;2022-08-01T13:03:16;26.40;81.80
46494;DHT22;53214;49.314;6.280;2022-08-01T13:05:52;26.60;81.30
46494;DHT22;53214;49.314;6.280;2022-08-01T13:08:31;26.60;80.60
46494;DHT22;53214;49.314;6.280;2022-08-01T13:11:03;26.60;80.50
46494;DHT22;53214;49.314;6.280;2022-08-01T13:13:42;26.70;80.30
46494;DHT22;53214;49.314;6.280;2022-08-01T13:16:10;26.60;80.40
46494;DHT22;53214;49.314;6.280;2022-08-01T13:18:57;26.60;80.70
46494;DHT22;53214;49.314;6.280;2022-08-01T13:24:11;26.60;80.50
46494;DHT22;53214;49.314;6.280;2022-08-01T13:26:44;26.50;80.60
46494;DHT22;53214;49.314;6.280;2022-08-01T13:29:13;26.60;80.60
46494;DHT22;53214;49.314;6.280;2022-08-01T13:31:41;26.90;79.90
46494;DHT22;53214;49.314;6.280;2022-08-01T13:34:09;26.90;79.60
46494;DHT22;53214;49.314;6.280;2022-08-01T13:36:36;26.90;80.00
46494;DHT22;53214;49.314;6.280;2022-08-01T13:39:05;27.10;79.60
46494;DHT22;53214;49.314;6.280;2022-08-01T13:41:51;27.30;79.30
46494;DHT22;53214;49.314;6.280;2022-08-01T13:44:18;27.20;79.40
46494;DHT22;53214;49.314;6.280;2022-08-01T13:46:45;27.00;79.90
46494;DHT22;53214;49.314;6.280;2022-08-01T13:49:17;26.70;80.70
46494;DHT22;53214;49.314;6.280;2022-08-01T13:51:44;26.60;81.10
46494;DHT22;53214;49.314;6.280;2022-08-01T13:54:13;26.40;81.50
46494;DHT22;53214;49.314;6.280;2022-08-01T13:56:40;26.20;81.50
46494;DHT22;53214;49.314;6.280;2022-08-01T13:59:07;26.00;81.90
46494;DHT22;53214;49.314;6.280;2022-08-01T14:01:34;25.90;82.40
46494;DHT22;53214;49.314;6.280;2022-08-01T14:04:02;25.60;82.70
46494;DHT22;53214;49.314;6.280;2022-08-01T14:06:30;25.70;82.90
46494;DHT22;53214;49.314;6.280;2022-08-01T14:08:57;25.80;82.40
46494;DHT22;53214;49.314;6.280;2022-08-01T14:11:27;25.70;82.70
46494;DHT22;53214;49.314;6.280;2022-08-01T14:14:03;25.60;83.10
46494;DHT22;53214;49.314;6.280;2022-08-01T14:16:30;25.60;83.40
46494;DHT22;53214;49.314;6.280;2022-08-01T14:18:57;25.60;83.00
46494;DHT22;53214;49.314;6.280;2022-08-01T14:21:24;25.60;82.50
46494;DHT22;53214;49.314;6.280;2022-08-01T14:23:50;25.60;82.50
46494;DHT22;53214;49.314;6.280;2022-08-01T14:26:17;25.60;83.00
46494;DHT22;53214;49.314;6.280;2022-08-01T14:28:44;25.60;83.10
46494;DHT22;53214;49.314;6.280;2022-08-01T14:31:11;25.70;83.10
46494;DHT22;53214;49.314;6.280;2022-08-01T14:33:38;25.60;83.30
46494;DHT22;53214;49.314;6.280;2022-08-01T14:36:06;25.60;83.40
46494;DHT22;53214;49.314;6.280;2022-08-01T14:38:53;25.50;83.70
46494;DHT22;53214;49.314;6.280;2022-08-01T14:41:25;25.50;83.90
46494;DHT22;53214;49.314;6.280;2022-08-01T14:43:53;25.60;84.00
46494;DHT22;53214;49.314;6.280;2022-08-01T14:46:20;25.60;84.00
46494;DHT22;53214;49.314;6.280;2022-08-01T14:48:47;25.70;83.60
46494;DHT22;53214;49.314;6.280;2022-08-01T14:51:14;25.70;82.70
46494;DHT22;53214;49.314;6.280;2022-08-01T14:53:41;25.60;82.90
46494;DHT22;53214;49.314;6.280;2022-08-01T14:56:16;25.70;82.80
46494;DHT22;53214;49.314;6.280;2022-08-01T14:58:44;25.70;82.70
46494;DHT22;53214;49.314;6.280;2022-08-01T15:01:11;25.80;82.70
46494;DHT22;53214;49.314;6.280;2022-08-01T15:03:38;25.80;82.70
46494;DHT22;53214;49.314;6.280;2022-08-01T15:06:06;25.90;82.70
46494;DHT22;53214;49.314;6.280;2022-08-01T15:08:33;25.70;82.70
46494;DHT22;53214;49.314;6.280;2022-08-01T15:11:00;25.60;83.40
46494;DHT22;53214;49.314;6.280;2022-08-01T15:13:28;25.70;82.80
46494;DHT22;53214;49.314;6.280;2022-08-01T15:15:57;25.70;82.80
46494;DHT22;53214;49.314;6.280;2022-08-01T15:18:27;25.80;82.40
46494;DHT22;53214;49.314;6.280;2022-08-01T15:20:55;25.70;82.10
46494;DHT22;53214;49.314;6.280;2022-08-01T15:23:23;25.70;82.10
46494;DHT22;53214;49.314;6.280;2022-08-01T15:25:50;25.70;81.70
46494;DHT22;53214;49.314;6.280;2022-08-01T15:28:17;25.80;81.40
46494;DHT22;53214;49.314;6.280;2022-08-01T15:30:45;25.90;81.30
46494;DHT22;53214;49.314;6.280;2022-08-01T15:33:12;25.90;81.40
46494;DHT22;53214;49.314;6.280;2022-08-01T15:35:39;25.90;81.40
46494;DHT22;53214;49.314;6.280;2022-08-01T15:38:06;25.80;81.70
46494;DHT22;53214;49.314;6.280;2022-08-01T15:40:33;25.90;81.40
46494;DHT22;53214;49.314;6.280;2022-08-01T15:43:01;26.00;81.00
46494;DHT22;53214;49.314;6.280;2022-08-01T15:45:28;26.10;81.20
46494;DHT22;53214;49.314;6.280;2022-08-01T15:48:12;26.30;80.70
46494;DHT22;53214;49.314;6.280;2022-08-01T15:50:39;26.50;79.70
46494;DHT22;53214;49.314;6.280;2022-08-01T15:53:06;26.40;79.70
46494;DHT22;53214;49.314;6.280;2022-08-01T15:55:37;26.40;80.00
46494;DHT22;53214;49.314;6.280;2022-08-01T15:58:04;26.20;80.50
46494;DHT22;53214;49.314;6.280;2022-08-01T16:00:32;26.00;80.90
46494;DHT22;53214;49.314;6.280;2022-08-01T16:03:08;25.80;81.40
46494;DHT22;53214;49.314;6.280;2022-08-01T16:05:36;25.80;81.80
46494;DHT22;53214;49.314;6.280;2022-08-01T16:08:10;25.60;81.80
46494;DHT22;53214;49.314;6.280;2022-08-01T16:10:37;25.40;82.60
46494;DHT22;53214;49.314;6.280;2022-08-01T16:13:04;25.30;82.70
46494;DHT22;53214;49.314;6.280;2022-08-01T16:15:36;25.10;83.30
46494;DHT22;53214;49.314;6.280;2022-08-01T16:18:05;25.10;82.90
46494;DHT22;53214;49.314;6.280;2022-08-01T16:20:33;24.90;83.20
46494;DHT22;53214;49.314;6.280;2022-08-01T16:23:00;24.90;83.90
46494;DHT22;53214;49.314;6.280;2022-08-01T16:25:27;24.90;84.50
46494;DHT22;53214;49.314;6.280;2022-08-01T16:27:54;24.90;84.40
46494;DHT22;53214;49.314;6.280;2022-08-01T16:30:20;24.70;84.70
46494;DHT22;53214;49.314;6.280;2022-08-01T16:32:47;24.80;85.00
46494;DHT22;53214;49.314;6.280;2022-08-01T16:35:22;24.80;85.10
46494;DHT22;53214;49.314;6.280;2022-08-01T16:37:53;24.70;85.30
46494;DHT22;53214;49.314;6.280;2022-08-01T16:40:20;24.60;85.50
46494;DHT22;53214;49.314;6.280;2022-08-01T16:42:47;24.60;85.90
46494;DHT22;53214;49.314;6.280;2022-08-01T16:45:15;24.60;86.00
46494;DHT22;53214;49.314;6.280;2022-08-01T16:47:43;24.60;86.40